KCDC/CDC METAR and TAF weather

Enter ICAO airport designator
Station Type Date Time Source
KCDC METAR 2018/04/21 20:53 UTC NOAA

KCDC 212053Z AUTO 35009KT 10SM CLR 18/M04 A3019 RMK AO2 SLP192 T01831044 58011


Station Type Date Time Source
KCDC Decoded METAR 2018/04/21 20:53 UTC NOAA

CEDAR CITY MUN AIRPORT, UT, United States (KCDC) 37-42N 113-06W 1714M
Apr 21, 2018 - 04:53 PM EDT / 2018.04.21 2053 UTC
Wind: from the N (350 degrees) at 10 MPH (9 KT):0
Visibility: 10 mile(s):0
Sky conditions: clear
Temperature: 64.9 F (18.3 C)
Dew Point: 24.1 F (-4.4 C)
Relative Humidity: 20%
Pressure (altimeter): 30.19 in. Hg (1022 hPa)
Pressure tendency: 0.03 inches (1.1 hPa) lower than three hours ago
ob: KCDC 212053Z AUTO 35009KT 10SM CLR 18/M04 A3019 RMK AO2 SLP192 T01831044 58011
cycle: 21

Station Type Date Time Source
KCDC TAF 2018/04/21 18:22 UTC NOAA

TAF KCDC 211720Z 2118/2218 VRB05KT P6SM SKC
FM212000 35008KT P6SM FEW070
FM220300 VRB04KT P6SM SKC


Example: see airport list